sensor_id;sensor_type;location;lat;lon;timestamp;temperature;humidity
7654;DHT22;3869;48.406;10.774;2024-03-29T00:02:12;4.50;99.90
7654;DHT22;3869;48.406;10.774;2024-03-29T00:04:38;4.50;99.90
7654;DHT22;3869;48.406;10.774;2024-03-29T00:07:04;4.50;99.90
7654;DHT22;3869;48.406;10.774;2024-03-29T00:09:31;4.40;99.90
7654;DHT22;3869;48.406;10.774;2024-03-29T00:11:57;4.40;99.90
7654;DHT22;3869;48.406;10.774;2024-03-29T00:14:23;4.30;99.90
7654;DHT22;3869;48.406;10.774;2024-03-29T00:16:49;4.30;99.90
7654;DHT22;3869;48.406;10.774;2024-03-29T00:19:16;4.40;99.90
7654;DHT22;3869;48.406;10.774;2024-03-29T00:21:42;4.30;99.90
7654;DHT22;3869;48.406;10.774;2024-03-29T00:24:09;4.30;99.90
7654;DHT22;3869;48.406;10.774;2024-03-29T00:26:35;4.40;99.90
7654;DHT22;3869;48.406;10.774;2024-03-29T00:29:02;4.40;99.90
7654;DHT22;3869;48.406;10.774;2024-03-29T00:31:28;4.50;99.90
7654;DHT22;3869;48.406;10.774;2024-03-29T00:33:54;4.50;99.90
7654;DHT22;3869;48.406;10.774;2024-03-29T00:36:21;4.50;99.90
7654;DHT22;3869;48.406;10.774;2024-03-29T00:38:47;4.60;99.90
7654;DHT22;3869;48.406;10.774;2024-03-29T00:41:14;4.60;99.90
7654;DHT22;3869;48.406;10.774;2024-03-29T00:43:40;4.70;99.90
7654;DHT22;3869;48.406;10.774;2024-03-29T00:46:06;4.70;99.90
7654;DHT22;3869;48.406;10.774;2024-03-29T00:48:32;4.70;99.90
7654;DHT22;3869;48.406;10.774;2024-03-29T00:50:58;4.70;99.90
7654;DHT22;3869;48.406;10.774;2024-03-29T00:53:25;4.80;99.90
7654;DHT22;3869;48.406;10.774;2024-03-29T00:55:52;4.80;99.90
7654;DHT22;3869;48.406;10.774;2024-03-29T00:58:18;4.80;99.90
7654;DHT22;3869;48.406;10.774;2024-03-29T01:00:44;4.80;99.90
7654;DHT22;3869;48.406;10.774;2024-03-29T01:03:10;4.80;99.90
7654;DHT22;3869;48.406;10.774;2024-03-29T01:05:36;4.80;99.90
7654;DHT22;3869;48.406;10.774;2024-03-29T01:08:02;4.90;99.90
7654;DHT22;3869;48.406;10.774;2024-03-29T01:10:30;5.00;99.90
7654;DHT22;3869;48.406;10.774;2024-03-29T01:12:56;5.10;99.90
7654;DHT22;3869;48.406;10.774;2024-03-29T01:15:22;5.10;99.90
7654;DHT22;3869;48.406;10.774;2024-03-29T01:17:48;5.10;99.90
7654;DHT22;3869;48.406;10.774;2024-03-29T01:20:15;5.20;99.90
7654;DHT22;3869;48.406;10.774;2024-03-29T01:22:41;5.20;99.90
7654;DHT22;3869;48.406;10.774;2024-03-29T01:25:08;5.20;99.90
7654;DHT22;3869;48.406;10.774;2024-03-29T01:27:35;5.30;99.90
7654;DHT22;3869;48.406;10.774;2024-03-29T01:30:01;5.20;99.90
7654;DHT22;3869;48.406;10.774;2024-03-29T01:32:28;5.20;99.90
7654;DHT22;3869;48.406;10.774;2024-03-29T01:34:54;5.20;99.90
7654;DHT22;3869;48.406;10.774;2024-03-29T01:37:20;5.30;99.90
7654;DHT22;3869;48.406;10.774;2024-03-29T01:39:46;5.30;99.90
7654;DHT22;3869;48.406;10.774;2024-03-29T01:42:12;5.20;99.90
7654;DHT22;3869;48.406;10.774;2024-03-29T01:44:40;5.10;99.90
7654;DHT22;3869;48.406;10.774;2024-03-29T01:47:07;5.10;99.90
7654;DHT22;3869;48.406;10.774;2024-03-29T01:49:34;5.10;99.90
7654;DHT22;3869;48.406;10.774;2024-03-29T01:52:02;5.10;99.90
7654;DHT22;3869;48.406;10.774;2024-03-29T01:54:30;5.10;99.90
7654;DHT22;3869;48.406;10.774;2024-03-29T01:56:58;5.00;99.90
7654;DHT22;3869;48.406;10.774;2024-03-29T01:59:25;5.00;99.90
7654;DHT22;3869;48.406;10.774;2024-03-29T02:01:54;5.10;99.90
7654;DHT22;3869;48.406;10.774;2024-03-29T02:04:21;5.10;99.90
7654;DHT22;3869;48.406;10.774;2024-03-29T02:06:49;5.20;99.90
7654;DHT22;3869;48.406;10.774;2024-03-29T02:09:16;5.20;99.90
7654;DHT22;3869;48.406;10.774;2024-03-29T02:11:43;5.20;99.90
7654;DHT22;3869;48.406;10.774;2024-03-29T02:14:10;5.30;99.90
7654;DHT22;3869;48.406;10.774;2024-03-29T02:16:37;5.20;99.90
7654;DHT22;3869;48.406;10.774;2024-03-29T02:19:06;5.20;99.90
7654;DHT22;3869;48.406;10.774;2024-03-29T02:21:36;5.10;99.90
7654;DHT22;3869;48.406;10.774;2024-03-29T02:24:06;5.00;99.90
7654;DHT22;3869;48.406;10.774;2024-03-29T02:26:34;5.10;99.90
7654;DHT22;3869;48.406;10.774;2024-03-29T02:29:02;5.10;99.90
7654;DHT22;3869;48.406;10.774;2024-03-29T02:31:29;5.00;99.90
7654;DHT22;3869;48.406;10.774;2024-03-29T02:33:56;4.80;99.90
7654;DHT22;3869;48.406;10.774;2024-03-29T02:36:23;4.70;99.90
7654;DHT22;3869;48.406;10.774;2024-03-29T02:38:50;4.70;99.90
7654;DHT22;3869;48.406;10.774;2024-03-29T02:41:19;4.80;99.90
7654;DHT22;3869;48.406;10.774;2024-03-29T02:43:45;4.90;99.90
7654;DHT22;3869;48.406;10.774;2024-03-29T02:46:12;4.80;99.90
7654;DHT22;3869;48.406;10.774;2024-03-29T02:48:40;4.80;99.90
7654;DHT22;3869;48.406;10.774;2024-03-29T02:51:07;4.90;99.90
7654;DHT22;3869;48.406;10.774;2024-03-29T02:53:33;4.90;99.90
7654;DHT22;3869;48.406;10.774;2024-03-29T02:56:00;4.80;99.90
7654;DHT22;3869;48.406;10.774;2024-03-29T02:58:27;4.90;99.90
7654;DHT22;3869;48.406;10.774;2024-03-29T03:00:54;4.90;99.90
7654;DHT22;3869;48.406;10.774;2024-03-29T03:03:26;5.00;99.90
7654;DHT22;3869;48.406;10.774;2024-03-29T03:05:53;4.90;99.90
7654;DHT22;3869;48.406;10.774;2024-03-29T03:08:20;5.00;99.90
7654;DHT22;3869;48.406;10.774;2024-03-29T03:11:05;5.10;99.90
7654;DHT22;3869;48.406;10.774;2024-03-29T03:13:33;5.10;99.90
7654;DHT22;3869;48.406;10.774;2024-03-29T03:16:00;5.10;99.90
7654;DHT22;3869;48.406;10.774;2024-03-29T03:18:27;5.10;99.90
7654;DHT22;3869;48.406;10.774;2024-03-29T03:20:55;5.10;99.90
7654;DHT22;3869;48.406;10.774;2024-03-29T03:23:23;5.20;99.90
7654;DHT22;3869;48.406;10.774;2024-03-29T03:25:54;5.20;99.90
7654;DHT22;3869;48.406;10.774;2024-03-29T03:28:20;5.10;99.90
7654;DHT22;3869;48.406;10.774;2024-03-29T03:30:49;5.20;99.90
7654;DHT22;3869;48.406;10.774;2024-03-29T03:33:15;5.20;99.90
7654;DHT22;3869;48.406;10.774;2024-03-29T03:35:43;5.20;99.90
7654;DHT22;3869;48.406;10.774;2024-03-29T03:38:09;5.20;99.90
7654;DHT22;3869;48.406;10.774;2024-03-29T03:40:37;5.30;99.90
7654;DHT22;3869;48.406;10.774;2024-03-29T03:43:04;5.30;99.90
7654;DHT22;3869;48.406;10.774;2024-03-29T03:45:34;5.30;99.90
7654;DHT22;3869;48.406;10.774;2024-03-29T03:48:01;5.30;99.90
7654;DHT22;3869;48.406;10.774;2024-03-29T03:50:29;5.30;99.90
7654;DHT22;3869;48.406;10.774;2024-03-29T03:52:55;5.30;99.90
7654;DHT22;3869;48.406;10.774;2024-03-29T03:55:22;5.30;99.90
7654;DHT22;3869;48.406;10.774;2024-03-29T03:57:48;5.20;99.90
7654;DHT22;3869;48.406;10.774;2024-03-29T04:00:17;5.20;99.90
7654;DHT22;3869;48.406;10.774;2024-03-29T04:02:47;5.20;99.90
7654;DHT22;3869;48.406;10.774;2024-03-29T04:05:15;5.30;99.90
7654;DHT22;3869;48.406;10.774;2024-03-29T04:07:42;5.30;99.90
7654;DHT22;3869;48.406;10.774;2024-03-29T04:10:09;5.30;99.90
7654;DHT22;3869;48.406;10.774;2024-03-29T04:12:35;5.30;99.90
7654;DHT22;3869;48.406;10.774;2024-03-29T04:15:03;5.30;99.90
7654;DHT22;3869;48.406;10.774;2024-03-29T04:17:29;5.20;99.90
7654;DHT22;3869;48.406;10.774;2024-03-29T04:19:57;5.30;99.90
7654;DHT22;3869;48.406;10.774;2024-03-29T04:22:24;5.30;99.90
7654;DHT22;3869;48.406;10.774;2024-03-29T04:24:52;5.30;99.90
7654;DHT22;3869;48.406;10.774;2024-03-29T04:27:18;5.10;99.90
7654;DHT22;3869;48.406;10.774;2024-03-29T04:29:45;5.10;99.90
7654;DHT22;3869;48.406;10.774;2024-03-29T04:32:11;5.00;99.90
7654;DHT22;3869;48.406;10.774;2024-03-29T04:34:38;4.90;99.90
7654;DHT22;3869;48.406;10.774;2024-03-29T04:37:04;4.90;99.90
7654;DHT22;3869;48.406;10.774;2024-03-29T04:39:32;4.90;99.90
7654;DHT22;3869;48.406;10.774;2024-03-29T04:41:59;5.10;99.90
7654;DHT22;3869;48.406;10.774;2024-03-29T04:44:28;5.20;99.90
7654;DHT22;3869;48.406;10.774;2024-03-29T04:46:55;5.20;99.90
7654;DHT22;3869;48.406;10.774;2024-03-29T04:49:23;5.30;99.90
7654;DHT22;3869;48.406;10.774;2024-03-29T04:51:56;5.40;99.90
7654;DHT22;3869;48.406;10.774;2024-03-29T04:54:23;5.40;99.90
7654;DHT22;3869;48.406;10.774;2024-03-29T04:56:52;5.30;99.90
7654;DHT22;3869;48.406;10.774;2024-03-29T04:59:19;5.30;99.90
7654;DHT22;3869;48.406;10.774;2024-03-29T05:01:46;5.20;99.90
7654;DHT22;3869;48.406;10.774;2024-03-29T05:04:16;5.10;99.90
7654;DHT22;3869;48.406;10.774;2024-03-29T05:06:44;5.00;99.90
7654;DHT22;3869;48.406;10.774;2024-03-29T05:09:12;5.00;99.90
7654;DHT22;3869;48.406;10.774;2024-03-29T05:11:39;5.10;99.90
7654;DHT22;3869;48.406;10.774;2024-03-29T05:14:07;5.30;99.90
7654;DHT22;3869;48.406;10.774;2024-03-29T05:16:36;5.30;99.90
7654;DHT22;3869;48.406;10.774;2024-03-29T05:19:03;5.40;99.90
7654;DHT22;3869;48.406;10.774;2024-03-29T05:21:30;5.40;99.90
7654;DHT22;3869;48.406;10.774;2024-03-29T05:23:57;5.50;99.90
7654;DHT22;3869;48.406;10.774;2024-03-29T05:26:24;5.50;99.90
7654;DHT22;3869;48.406;10.774;2024-03-29T05:28:51;5.60;99.90
7654;DHT22;3869;48.406;10.774;2024-03-29T05:31:21;5.70;99.90
7654;DHT22;3869;48.406;10.774;2024-03-29T05:33:48;5.80;99.90
7654;DHT22;3869;48.406;10.774;2024-03-29T05:36:15;5.90;99.90
7654;DHT22;3869;48.406;10.774;2024-03-29T05:38:42;5.90;99.90
7654;DHT22;3869;48.406;10.774;2024-03-29T05:41:09;5.90;99.90
7654;DHT22;3869;48.406;10.774;2024-03-29T05:43:36;5.80;99.90
7654;DHT22;3869;48.406;10.774;2024-03-29T05:46:05;5.80;99.90
7654;DHT22;3869;48.406;10.774;2024-03-29T05:48:33;5.80;99.90
7654;DHT22;3869;48.406;10.774;2024-03-29T05:51:01;5.80;99.90
7654;DHT22;3869;48.406;10.774;2024-03-29T05:53:28;5.70;99.90
7654;DHT22;3869;48.406;10.774;2024-03-29T05:55:55;5.70;99.90
7654;DHT22;3869;48.406;10.774;2024-03-29T05:58:22;5.70;99.90
7654;DHT22;3869;48.406;10.774;2024-03-29T06:00:49;5.60;99.90
7654;DHT22;3869;48.406;10.774;2024-03-29T06:03:16;5.60;99.90
7654;DHT22;3869;48.406;10.774;2024-03-29T06:05:44;5.60;99.90
7654;DHT22;3869;48.406;10.774;2024-03-29T06:08:12;5.50;99.90
7654;DHT22;3869;48.406;10.774;2024-03-29T06:10:39;5.50;99.90
7654;DHT22;3869;48.406;10.774;2024-03-29T06:13:06;5.40;99.90
7654;DHT22;3869;48.406;10.774;2024-03-29T06:15:53;5.40;99.90
7654;DHT22;3869;48.406;10.774;2024-03-29T06:18:37;5.40;99.90
7654;DHT22;3869;48.406;10.774;2024-03-29T06:21:06;5.40;99.90
7654;DHT22;3869;48.406;10.774;2024-03-29T06:23:33;5.40;99.90
7654;DHT22;3869;48.406;10.774;2024-03-29T06:26:00;5.50;99.90
7654;DHT22;3869;48.406;10.774;2024-03-29T06:28:28;5.50;99.90
7654;DHT22;3869;48.406;10.774;2024-03-29T06:30:55;5.50;99.90
7654;DHT22;3869;48.406;10.774;2024-03-29T06:33:22;5.50;99.90
7654;DHT22;3869;48.406;10.774;2024-03-29T06:35:53;5.60;99.90
7654;DHT22;3869;48.406;10.774;2024-03-29T06:38:22;5.60;99.90
7654;DHT22;3869;48.406;10.774;2024-03-29T06:40:49;5.70;99.90
7654;DHT22;3869;48.406;10.774;2024-03-29T06:43:16;5.80;99.90
7654;DHT22;3869;48.406;10.774;2024-03-29T06:45:43;5.90;99.90
7654;DHT22;3869;48.406;10.774;2024-03-29T06:48:10;5.90;99.90
7654;DHT22;3869;48.406;10.774;2024-03-29T06:50:38;6.00;99.90
7654;DHT22;3869;48.406;10.774;2024-03-29T06:53:06;6.10;99.90
7654;DHT22;3869;48.406;10.774;2024-03-29T06:55:36;6.20;99.90
7654;DHT22;3869;48.406;10.774;2024-03-29T06:58:04;6.30;99.90
7654;DHT22;3869;48.406;10.774;2024-03-29T07:00:31;6.40;99.90
7654;DHT22;3869;48.406;10.774;2024-03-29T07:02:58;6.70;99.90
7654;DHT22;3869;48.406;10.774;2024-03-29T07:05:25;6.90;99.90
7654;DHT22;3869;48.406;10.774;2024-03-29T07:07:52;7.00;99.90
7654;DHT22;3869;48.406;10.774;2024-03-29T07:10:20;7.20;99.90
7654;DHT22;3869;48.406;10.774;2024-03-29T07:12:48;7.40;99.90
7654;DHT22;3869;48.406;10.774;2024-03-29T07:15:15;7.50;99.90
7654;DHT22;3869;48.406;10.774;2024-03-29T07:17:42;7.60;99.90
7654;DHT22;3869;48.406;10.774;2024-03-29T07:20:09;7.70;99.90
7654;DHT22;3869;48.406;10.774;2024-03-29T07:22:37;7.70;99.90
7654;DHT22;3869;48.406;10.774;2024-03-29T07:25:04;7.70;99.90
7654;DHT22;3869;48.406;10.774;2024-03-29T07:27:32;7.70;99.90
7654;DHT22;3869;48.406;10.774;2024-03-29T07:30:02;7.80;99.90
7654;DHT22;3869;48.406;10.774;2024-03-29T07:32:31;7.90;99.90
7654;DHT22;3869;48.406;10.774;2024-03-29T07:34:58;7.90;99.90
7654;DHT22;3869;48.406;10.774;2024-03-29T07:37:25;7.90;99.90
7654;DHT22;3869;48.406;10.774;2024-03-29T07:39:52;7.80;99.90
7654;DHT22;3869;48.406;10.774;2024-03-29T07:42:19;7.90;99.90
7654;DHT22;3869;48.406;10.774;2024-03-29T07:44:47;8.00;99.90
7654;DHT22;3869;48.406;10.774;2024-03-29T07:47:16;8.10;99.90
7654;DHT22;3869;48.406;10.774;2024-03-29T07:49:43;8.30;99.90
7654;DHT22;3869;48.406;10.774;2024-03-29T07:52:11;8.40;99.90
7654;DHT22;3869;48.406;10.774;2024-03-29T07:54:38;8.40;99.90
7654;DHT22;3869;48.406;10.774;2024-03-29T07:57:05;8.50;99.90
7654;DHT22;3869;48.406;10.774;2024-03-29T07:59:34;8.50;99.90
7654;DHT22;3869;48.406;10.774;2024-03-29T08:02:01;8.50;99.90
7654;DHT22;3869;48.406;10.774;2024-03-29T08:04:30;8.60;99.90
7654;DHT22;3869;48.406;10.774;2024-03-29T08:06:57;8.70;99.90
7654;DHT22;3869;48.406;10.774;2024-03-29T08:09:24;8.70;99.90
7654;DHT22;3869;48.406;10.774;2024-03-29T08:11:51;8.70;99.90
7654;DHT22;3869;48.406;10.774;2024-03-29T08:14:18;8.60;99.90
7654;DHT22;3869;48.406;10.774;2024-03-29T08:16:45;8.60;99.90
7654;DHT22;3869;48.406;10.774;2024-03-29T08:19:12;8.60;99.90
7654;DHT22;3869;48.406;10.774;2024-03-29T08:21:41;8.60;99.90
7654;DHT22;3869;48.406;10.774;2024-03-29T08:24:08;8.50;99.90
7654;DHT22;3869;48.406;10.774;2024-03-29T08:26:35;8.60;99.90
7654;DHT22;3869;48.406;10.774;2024-03-29T08:29:02;8.50;99.90
7654;DHT22;3869;48.406;10.774;2024-03-29T08:31:29;8.60;99.90
7654;DHT22;3869;48.406;10.774;2024-03-29T08:33:56;8.70;99.90
7654;DHT22;3869;48.406;10.774;2024-03-29T08:36:24;8.70;99.90
7654;DHT22;3869;48.406;10.774;2024-03-29T08:38:52;8.80;99.90
7654;DHT22;3869;48.406;10.774;2024-03-29T08:41:19;8.90;99.90
7654;DHT22;3869;48.406;10.774;2024-03-29T08:43:46;8.90;99.90
7654;DHT22;3869;48.406;10.774;2024-03-29T08:46:13;9.00;99.90
7654;DHT22;3869;48.406;10.774;2024-03-29T08:48:40;9.10;99.90
7654;DHT22;3869;48.406;10.774;2024-03-29T08:51:09;9.10;99.90
7654;DHT22;3869;48.406;10.774;2024-03-29T08:53:36;9.20;99.90
7654;DHT22;3869;48.406;10.774;2024-03-29T08:56:05;9.30;99.90
7654;DHT22;3869;48.406;10.774;2024-03-29T08:58:32;9.40;99.90
7654;DHT22;3869;48.406;10.774;2024-03-29T09:01:07;9.50;99.90
7654;DHT22;3869;48.406;10.774;2024-03-29T09:03:34;9.60;99.90
7654;DHT22;3869;48.406;10.774;2024-03-29T09:06:01;9.70;99.90
7654;DHT22;3869;48.406;10.774;2024-03-29T09:08:28;9.80;99.90
7654;DHT22;3869;48.406;10.774;2024-03-29T09:10:55;9.90;99.90
7654;DHT22;3869;48.406;10.774;2024-03-29T09:13:24;10.00;99.90
7654;DHT22;3869;48.406;10.774;2024-03-29T09:15:51;10.00;99.90
7654;DHT22;3869;48.406;10.774;2024-03-29T09:18:19;10.00;99.90
7654;DHT22;3869;48.406;10.774;2024-03-29T09:20:56;9.90;99.90
7654;DHT22;3869;48.406;10.774;2024-03-29T09:23:24;9.90;99.90
7654;DHT22;3869;48.406;10.774;2024-03-29T09:25:53;9.90;99.90
7654;DHT22;3869;48.406;10.774;2024-03-29T09:28:21;9.80;99.90
7654;DHT22;3869;48.406;10.774;2024-03-29T09:30:48;9.80;99.90
7654;DHT22;3869;48.406;10.774;2024-03-29T09:33:15;9.90;99.90
7654;DHT22;3869;48.406;10.774;2024-03-29T09:35:44;9.90;99.90
7654;DHT22;3869;48.406;10.774;2024-03-29T09:38:11;10.00;99.90
7654;DHT22;3869;48.406;10.774;2024-03-29T09:40:38;10.10;99.90
7654;DHT22;3869;48.406;10.774;2024-03-29T09:43:06;10.20;99.90
7654;DHT22;3869;48.406;10.774;2024-03-29T09:45:35;10.30;99.90
7654;DHT22;3869;48.406;10.774;2024-03-29T09:48:04;10.30;99.90
7654;DHT22;3869;48.406;10.774;2024-03-29T09:50:32;10.40;99.90
7654;DHT22;3869;48.406;10.774;2024-03-29T09:53:02;10.40;99.90
7654;DHT22;3869;48.406;10.774;2024-03-29T09:55:31;10.40;99.90
7654;DHT22;3869;48.406;10.774;2024-03-29T09:57:58;10.60;99.90
7654;DHT22;3869;48.406;10.774;2024-03-29T10:00:27;10.70;99.90
7654;DHT22;3869;48.406;10.774;2024-03-29T10:02:55;10.90;99.90
7654;DHT22;3869;48.406;10.774;2024-03-29T10:05:23;11.10;99.90
7654;DHT22;3869;48.406;10.774;2024-03-29T10:07:51;11.30;99.90
7654;DHT22;3869;48.406;10.774;2024-03-29T10:10:19;11.50;99.90
7654;DHT22;3869;48.406;10.774;2024-03-29T10:12:46;11.80;99.90
7654;DHT22;3869;48.406;10.774;2024-03-29T10:15:13;12.10;99.90
7654;DHT22;3869;48.406;10.774;2024-03-29T10:17:45;12.30;99.90
7654;DHT22;3869;48.406;10.774;2024-03-29T10:20:16;12.50;99.90
7654;DHT22;3869;48.406;10.774;2024-03-29T10:22:44;12.70;99.90
7654;DHT22;3869;48.406;10.774;2024-03-29T10:25:13;12.80;99.90
7654;DHT22;3869;48.406;10.774;2024-03-29T10:27:41;12.90;99.90
7654;DHT22;3869;48.406;10.774;2024-03-29T10:30:10;13.10;99.90
7654;DHT22;3869;48.406;10.774;2024-03-29T10:32:43;13.10;99.90
7654;DHT22;3869;48.406;10.774;2024-03-29T10:35:10;13.30;99.90
7654;DHT22;3869;48.406;10.774;2024-03-29T10:37:37;13.30;99.90
7654;DHT22;3869;48.406;10.774;2024-03-29T10:40:07;13.30;99.90
7654;DHT22;3869;48.406;10.774;2024-03-29T10:42:36;13.20;99.90
7654;DHT22;3869;48.406;10.774;2024-03-29T10:45:06;13.00;99.90
7654;DHT22;3869;48.406;10.774;2024-03-29T10:47:33;12.80;99.90
7654;DHT22;3869;48.406;10.774;2024-03-29T10:50:01;12.70;99.90
7654;DHT22;3869;48.406;10.774;2024-03-29T10:52:31;12.50;99.90
7654;DHT22;3869;48.406;10.774;2024-03-29T10:54:58;12.30;99.90
7654;DHT22;3869;48.406;10.774;2024-03-29T10:57:27;12.10;99.90
7654;DHT22;3869;48.406;10.774;2024-03-29T11:00:00;12.00;99.90
7654;DHT22;3869;48.406;10.774;2024-03-29T11:02:42;11.90;99.90
7654;DHT22;3869;48.406;10.774;2024-03-29T11:05:13;11.80;99.90
7654;DHT22;3869;48.406;10.774;2024-03-29T11:07:42;11.90;99.90
7654;DHT22;3869;48.406;10.774;2024-03-29T11:10:25;11.90;99.90
7654;DHT22;3869;48.406;10.774;2024-03-29T11:13:00;12.00;99.90
7654;DHT22;3869;48.406;10.774;2024-03-29T11:15:30;12.10;99.90
7654;DHT22;3869;48.406;10.774;2024-03-29T11:17:59;12.10;99.90
7654;DHT22;3869;48.406;10.774;2024-03-29T11:20:28;12.30;99.90
7654;DHT22;3869;48.406;10.774;2024-03-29T11:23:03;12.40;99.90
7654;DHT22;3869;48.406;10.774;2024-03-29T11:25:39;12.50;99.90
7654;DHT22;3869;48.406;10.774;2024-03-29T11:28:07;12.70;99.90
7654;DHT22;3869;48.406;10.774;2024-03-29T11:30:42;12.80;99.90
7654;DHT22;3869;48.406;10.774;2024-03-29T11:33:29;12.70;99.90
7654;DHT22;3869;48.406;10.774;2024-03-29T11:35:57;12.70;99.90
7654;DHT22;3869;48.406;10.774;2024-03-29T11:38:32;12.40;99.90
7654;DHT22;3869;48.406;10.774;2024-03-29T11:41:02;12.30;99.90
7654;DHT22;3869;48.406;10.774;2024-03-29T11:43:30;12.20;99.90
7654;DHT22;3869;48.406;10.774;2024-03-29T11:45:58;12.20;99.90
7654;DHT22;3869;48.406;10.774;2024-03-29T11:48:28;12.30;99.90
7654;DHT22;3869;48.406;10.774;2024-03-29T11:50:55;12.50;99.90
7654;DHT22;3869;48.406;10.774;2024-03-29T11:53:23;12.60;99.90
7654;DHT22;3869;48.406;10.774;2024-03-29T11:55:50;12.50;99.90
7654;DHT22;3869;48.406;10.774;2024-03-29T11:58:20;12.60;99.90
7654;DHT22;3869;48.406;10.774;2024-03-29T12:00:48;12.70;99.90
7654;DHT22;3869;48.406;10.774;2024-03-29T12:03:16;12.80;99.90
7654;DHT22;3869;48.406;10.774;2024-03-29T12:05:44;13.00;99.90
7654;DHT22;3869;48.406;10.774;2024-03-29T12:08:13;13.20;99.90
7654;DHT22;3869;48.406;10.774;2024-03-29T12:10:40;13.50;99.90
7654;DHT22;3869;48.406;10.774;2024-03-29T12:13:08;13.70;99.90
7654;DHT22;3869;48.406;10.774;2024-03-29T12:15:35;13.90;99.90
7654;DHT22;3869;48.406;10.774;2024-03-29T12:18:03;14.00;99.90
7654;DHT22;3869;48.406;10.774;2024-03-29T12:20:31;14.10;99.90
7654;DHT22;3869;48.406;10.774;2024-03-29T12:22:59;14.20;99.90
7654;DHT22;3869;48.406;10.774;2024-03-29T12:25:29;14.20;99.90
7654;DHT22;3869;48.406;10.774;2024-03-29T12:27:58;14.30;99.90
7654;DHT22;3869;48.406;10.774;2024-03-29T12:30:26;14.30;99.90
7654;DHT22;3869;48.406;10.774;2024-03-29T12:33:00;14.40;99.90
7654;DHT22;3869;48.406;10.774;2024-03-29T12:35:28;14.50;99.90
7654;DHT22;3869;48.406;10.774;2024-03-29T12:37:58;14.60;99.90
7654;DHT22;3869;48.406;10.774;2024-03-29T12:40:26;14.70;99.90
7654;DHT22;3869;48.406;10.774;2024-03-29T12:42:57;14.60;99.90
7654;DHT22;3869;48.406;10.774;2024-03-29T12:45:26;14.50;99.90
7654;DHT22;3869;48.406;10.774;2024-03-29T12:47:53;14.60;99.90
7654;DHT22;3869;48.406;10.774;2024-03-29T12:50:25;14.60;99.90
7654;DHT22;3869;48.406;10.774;2024-03-29T12:52:54;14.60;99.90
7654;DHT22;3869;48.406;10.774;2024-03-29T12:55:21;14.70;99.90
7654;DHT22;3869;48.406;10.774;2024-03-29T12:57:48;14.70;99.90
7654;DHT22;3869;48.406;10.774;2024-03-29T13:00:20;14.60;99.90
7654;DHT22;3869;48.406;10.774;2024-03-29T13:02:47;14.60;99.90
7654;DHT22;3869;48.406;10.774;2024-03-29T13:05:15;14.70;99.90
7654;DHT22;3869;48.406;10.774;2024-03-29T13:07:42;14.90;99.90
7654;DHT22;3869;48.406;10.774;2024-03-29T13:10:10;14.90;99.90
7654;DHT22;3869;48.406;10.774;2024-03-29T13:12:39;15.10;99.90
7654;DHT22;3869;48.406;10.774;2024-03-29T13:15:16;15.20;99.90
7654;DHT22;3869;48.406;10.774;2024-03-29T13:17:46;15.30;99.90
7654;DHT22;3869;48.406;10.774;2024-03-29T13:20:14;15.20;99.90
7654;DHT22;3869;48.406;10.774;2024-03-29T13:22:42;15.20;99.90
7654;DHT22;3869;48.406;10.774;2024-03-29T13:25:11;15.30;99.90
7654;DHT22;3869;48.406;10.774;2024-03-29T13:27:39;15.20;99.90
7654;DHT22;3869;48.406;10.774;2024-03-29T13:30:08;15.20;99.90
7654;DHT22;3869;48.406;10.774;2024-03-29T13:32:36;15.20;99.90
7654;DHT22;3869;48.406;10.774;2024-03-29T13:35:05;15.30;99.90
7654;DHT22;3869;48.406;10.774;2024-03-29T13:37:37;15.30;99.90
7654;DHT22;3869;48.406;10.774;2024-03-29T13:40:05;15.40;99.90
7654;DHT22;3869;48.406;10.774;2024-03-29T13:42:32;15.50;99.90
7654;DHT22;3869;48.406;10.774;2024-03-29T13:45:00;15.60;99.90
7654;DHT22;3869;48.406;10.774;2024-03-29T13:47:27;15.50;99.90
7654;DHT22;3869;48.406;10.774;2024-03-29T13:49:54;15.40;99.90
7654;DHT22;3869;48.406;10.774;2024-03-29T13:52:23;15.40;99.90
7654;DHT22;3869;48.406;10.774;2024-03-29T13:54:52;15.40;99.90
7654;DHT22;3869;48.406;10.774;2024-03-29T13:57:19;15.40;99.90
7654;DHT22;3869;48.406;10.774;2024-03-29T13:59:47;15.50;99.90
7654;DHT22;3869;48.406;10.774;2024-03-29T14:02:17;15.50;99.90
7654;DHT22;3869;48.406;10.774;2024-03-29T14:04:45;15.50;99.90
7654;DHT22;3869;48.406;10.774;2024-03-29T14:07:14;15.50;99.90
7654;DHT22;3869;48.406;10.774;2024-03-29T14:09:43;15.60;99.90
7654;DHT22;3869;48.406;10.774;2024-03-29T14:12:10;15.70;99.90
7654;DHT22;3869;48.406;10.774;2024-03-29T14:14:37;15.80;99.90
7654;DHT22;3869;48.406;10.774;2024-03-29T14:17:04;15.90;99.90
7654;DHT22;3869;48.406;10.774;2024-03-29T14:19:32;15.90;99.90
7654;DHT22;3869;48.406;10.774;2024-03-29T14:21:59;16.00;99.90
7654;DHT22;3869;48.406;10.774;2024-03-29T14:24:27;16.00;99.90
7654;DHT22;3869;48.406;10.774;2024-03-29T14:26:57;15.90;99.90
7654;DHT22;3869;48.406;10.774;2024-03-29T14:29:24;15.90;99.90
7654;DHT22;3869;48.406;10.774;2024-03-29T14:31:51;15.80;99.90
7654;DHT22;3869;48.406;10.774;2024-03-29T14:34:21;15.80;99.90
7654;DHT22;3869;48.406;10.774;2024-03-29T14:36:48;15.80;99.90
7654;DHT22;3869;48.406;10.774;2024-03-29T14:39:16;15.80;99.90
7654;DHT22;3869;48.406;10.774;2024-03-29T14:41:44;15.90;99.90
7654;DHT22;3869;48.406;10.774;2024-03-29T14:44:13;16.00;99.90
7654;DHT22;3869;48.406;10.774;2024-03-29T14:46:40;16.00;99.90
7654;DHT22;3869;48.406;10.774;2024-03-29T14:49:07;16.00;99.90
7654;DHT22;3869;48.406;10.774;2024-03-29T14:51:36;16.10;99.90
7654;DHT22;3869;48.406;10.774;2024-03-29T14:54:04;16.10;99.90
7654;DHT22;3869;48.406;10.774;2024-03-29T14:56:32;16.10;99.90
7654;DHT22;3869;48.406;10.774;2024-03-29T14:59:00;16.10;99.90
7654;DHT22;3869;48.406;10.774;2024-03-29T15:01:28;16.30;99.90
7654;DHT22;3869;48.406;10.774;2024-03-29T15:03:55;16.30;99.90
7654;DHT22;3869;48.406;10.774;2024-03-29T15:06:23;16.40;99.90
7654;DHT22;3869;48.406;10.774;2024-03-29T15:08:50;16.50;99.90
7654;DHT22;3869;48.406;10.774;2024-03-29T15:11:19;16.50;99.90
7654;DHT22;3869;48.406;10.774;2024-03-29T15:13:47;16.50;99.90
7654;DHT22;3869;48.406;10.774;2024-03-29T15:16:16;16.50;99.90
7654;DHT22;3869;48.406;10.774;2024-03-29T15:18:45;16.60;99.90
7654;DHT22;3869;48.406;10.774;2024-03-29T15:21:12;16.50;99.90
7654;DHT22;3869;48.406;10.774;2024-03-29T15:23:39;16.40;99.90
7654;DHT22;3869;48.406;10.774;2024-03-29T15:26:06;16.40;99.90
7654;DHT22;3869;48.406;10.774;2024-03-29T15:28:34;16.30;99.90
7654;DHT22;3869;48.406;10.774;2024-03-29T15:31:20;16.30;99.90
7654;DHT22;3869;48.406;10.774;2024-03-29T15:33:49;16.20;99.90
7654;DHT22;3869;48.406;10.774;2024-03-29T15:36:16;16.10;99.90
7654;DHT22;3869;48.406;10.774;2024-03-29T15:38:44;16.00;99.90
7654;DHT22;3869;48.406;10.774;2024-03-29T15:41:11;16.10;99.90
7654;DHT22;3869;48.406;10.774;2024-03-29T15:43:38;16.00;99.90
7654;DHT22;3869;48.406;10.774;2024-03-29T15:46:06;16.00;99.90
7654;DHT22;3869;48.406;10.774;2024-03-29T15:48:34;16.00;99.90
7654;DHT22;3869;48.406;10.774;2024-03-29T15:51:02;16.10;99.90
7654;DHT22;3869;48.406;10.774;2024-03-29T15:53:30;16.10;99.90
7654;DHT22;3869;48.406;10.774;2024-03-29T15:55:57;16.00;99.90
7654;DHT22;3869;48.406;10.774;2024-03-29T15:58:25;16.00;99.90
7654;DHT22;3869;48.406;10.774;2024-03-29T16:00:52;16.00;99.90